createdAt,value
2023-04-01T00:01:17.817Z,8.20
2023-04-01T00:06:23.643Z,7.90
2023-04-01T00:11:29.128Z,9.27
2023-04-01T00:16:34.940Z,8.63
2023-04-01T00:21:41.383Z,10.40
2023-04-01T00:26:48.731Z,13.73
2023-04-01T00:31:54.564Z,11.87
2023-04-01T00:37:00.099Z,8.97
2023-04-01T00:42:07.314Z,10.40
2023-04-01T00:47:12.948Z,10.87
2023-04-01T00:52:21.460Z,10.27
2023-04-01T00:57:36.058Z,15.57
2023-04-01T01:02:43.778Z,14.13
2023-04-01T01:08:10.981Z,12.60
2023-04-01T01:13:19.545Z,11.50
2023-04-01T01:18:31.101Z,10.93
2023-04-01T01:24:08.350Z,11.57
2023-04-01T01:29:33.321Z,9.63
2023-04-01T01:34:41.867Z,7.83
2023-04-01T01:39:50.482Z,7.03
2023-04-01T01:44:58.588Z,4.90
2023-04-01T01:50:06.506Z,5.87
2023-04-01T01:55:36.332Z,5.10
2023-04-01T02:00:45.350Z,5.90
2023-04-01T02:05:54.181Z,5.13
2023-04-01T02:11:23.670Z,7.53
2023-04-01T02:16:35.873Z,5.50
2023-04-01T02:21:44.319Z,5.27
2023-04-01T02:26:51.575Z,6.13
2023-04-01T02:31:58.199Z,6.43
2023-04-01T02:37:04.820Z,8.50
2023-04-01T02:42:10.443Z,9.10
2023-04-01T02:47:16.073Z,9.57
2023-04-01T02:52:21.640Z,7.83
2023-04-01T02:57:27.933Z,8.97
2023-04-01T03:02:33.637Z,7.50
2023-04-01T03:07:39.284Z,7.57
2023-04-01T03:12:44.779Z,8.97
2023-04-01T03:17:50.877Z,9.70
2023-04-01T03:22:56.591Z,7.33
2023-04-01T03:28:02.267Z,6.53
2023-04-01T03:33:08.285Z,7.20
2023-04-01T03:38:14.010Z,9.57
2023-04-01T03:43:19.853Z,7.77
2023-04-01T03:48:26.664Z,9.53
2023-04-01T03:53:32.377Z,7.93
2023-04-01T03:58:40.210Z,6.13
2023-04-01T04:03:46.995Z,4.90
2023-04-01T04:08:52.829Z,5.93
2023-04-01T04:13:58.653Z,5.67
2023-04-01T04:19:05.668Z,5.20
2023-04-01T04:24:12.163Z,6.13
2023-04-01T04:29:19.281Z,5.10
2023-04-01T04:34:25.050Z,5.53
2023-04-01T04:39:31.349Z,6.00
2023-04-01T04:44:36.932Z,6.07
2023-04-01T04:49:42.575Z,6.37
2023-04-01T04:54:48.325Z,3.93
2023-04-01T04:59:53.898Z,4.60
2023-04-01T05:05:13.106Z,6.00
2023-04-01T05:10:18.984Z,4.97
2023-04-01T05:15:25.725Z,5.73
2023-04-01T05:20:31.464Z,4.80
2023-04-01T05:25:39.762Z,5.50
2023-04-01T05:30:46.377Z,4.93
2023-04-01T05:36:17.823Z,5.77
2023-04-01T05:41:23.867Z,7.50
2023-04-01T05:46:29.706Z,7.97
2023-04-01T05:51:36.873Z,7.23
2023-04-01T05:56:43.463Z,6.53
2023-04-01T06:01:49.096Z,5.37
2023-04-01T06:06:54.904Z,5.17
2023-04-01T06:12:12.531Z,5.37
2023-04-01T06:17:22.832Z,4.30
2023-04-01T06:22:44.340Z,4.60
2023-04-01T06:28:20.919Z,6.87
2023-04-01T06:33:35.422Z,5.40
2023-04-01T06:38:59.191Z,6.17
2023-04-01T06:44:28.763Z,4.77
2023-04-01T06:50:19.717Z,4.30
2023-04-01T06:55:52.230Z,3.67
2023-04-01T07:01:05.137Z,5.67
2023-04-01T07:06:19.898Z,6.40
2023-04-01T07:11:33.151Z,5.73
2023-04-01T07:16:56.360Z,4.90
2023-04-01T07:22:32.659Z,4.60
2023-04-01T07:27:44.965Z,4.37
2023-04-01T07:33:05.804Z,5.27
2023-04-01T07:38:26.797Z,6.80
2023-04-01T07:43:38.928Z,6.50
2023-04-01T07:48:54.955Z,7.60
2023-04-01T07:54:03.770Z,4.90
2023-04-01T07:59:30.228Z,6.87
2023-04-01T08:04:42.151Z,6.93
2023-04-01T08:09:51.989Z,5.83
2023-04-01T08:15:24.637Z,6.83
2023-04-01T08:20:49.761Z,5.33
2023-04-01T08:26:01.122Z,6.23
2023-04-01T08:31:17.377Z,6.40
2023-04-01T08:36:29.056Z,5.57
2023-04-01T08:42:02.962Z,5.40
2023-04-01T08:47:18.851Z,6.27
2023-04-01T08:52:39.059Z,7.10
2023-04-01T08:58:03.746Z,7.37
2023-04-01T09:03:33.069Z,4.97
2023-04-01T09:08:43.322Z,4.20
2023-04-01T09:13:54.632Z,4.33
2023-04-01T09:19:15.016Z,4.87
2023-04-01T09:24:32.590Z,5.50
2023-04-01T09:29:57.053Z,4.97
2023-04-01T09:35:24.337Z,2.97
2023-04-01T09:40:38.516Z,3.10
2023-04-01T09:45:51.214Z,2.93
2023-04-01T09:51:03.074Z,3.33
2023-04-01T09:56:17.917Z,3.03
2023-04-01T10:01:49.404Z,3.97
2023-04-01T10:07:28.166Z,3.27
2023-04-01T10:12:59.693Z,3.83
2023-04-01T10:18:24.546Z,2.73
2023-04-01T10:23:48.053Z,4.97
2023-04-01T10:29:04.300Z,4.60
2023-04-01T10:34:35.704Z,3.30
2023-04-01T10:40:02.537Z,3.50
2023-04-01T10:45:33.711Z,3.80
2023-04-01T10:50:51.407Z,4.27
2023-04-01T10:56:35.623Z,3.60
2023-04-01T11:02:03.994Z,4.60
2023-04-01T11:07:31.847Z,3.70
2023-04-01T11:12:56.040Z,4.73
2023-04-01T11:18:10.470Z,4.10
2023-04-01T11:23:35.548Z,3.57
2023-04-01T11:29:00.670Z,4.53
2023-04-01T11:34:22.200Z,4.83
2023-04-01T11:39:33.670Z,4.87
2023-04-01T11:45:20.107Z,5.47
2023-04-01T11:50:49.355Z,4.00
2023-04-01T11:56:21.930Z,5.87
2023-04-01T12:01:30.541Z,5.30
2023-04-01T12:06:44.935Z,3.87
2023-04-01T12:12:11.974Z,4.23
2023-04-01T12:17:41.553Z,5.73
2023-04-01T12:23:23.338Z,4.73
2023-04-01T12:28:49.704Z,4.23
2023-04-01T12:34:04.113Z,7.67
2023-04-01T12:39:15.439Z,3.70
2023-04-01T12:44:38.547Z,4.00
2023-04-01T12:49:56.196Z,3.83
2023-04-01T12:55:10.275Z,4.53
2023-04-01T13:00:47.380Z,3.50
2023-04-01T13:06:21.803Z,3.87
2023-04-01T13:11:40.119Z,5.60
2023-04-01T13:17:06.911Z,2.37
2023-04-01T13:22:23.612Z,3.37
2023-04-01T13:27:32.172Z,6.20
2023-04-01T13:32:44.114Z,3.93
2023-04-01T13:37:55.786Z,4.20
2023-04-01T13:43:16.530Z,4.57
2023-04-01T13:48:25.096Z,3.20
2023-04-01T13:53:33.756Z,3.77
2023-04-01T13:58:42.266Z,3.43
2023-04-01T14:04:14.666Z,4.50
2023-04-01T14:09:38.152Z,4.80
2023-04-01T14:15:10.805Z,4.90
2023-04-01T14:20:37.626Z,6.13
2023-04-01T14:25:55.528Z,4.63
2023-04-01T14:31:29.935Z,6.27
2023-04-01T14:36:47.376Z,5.40
2023-04-01T14:42:24.784Z,5.10
2023-04-01T14:47:36.335Z,4.10
2023-04-01T14:52:44.649Z,3.83
2023-04-01T14:58:05.652Z,3.40
2023-04-01T15:03:23.261Z,3.70
2023-04-01T15:08:40.790Z,5.37
2023-04-01T15:13:50.527Z,7.27
2023-04-01T15:19:27.916Z,6.47
2023-04-01T15:24:42.233Z,5.20
2023-04-01T15:30:16.342Z,6.10
2023-04-01T15:35:52.384Z,4.33
2023-04-01T15:41:20.108Z,6.30
2023-04-01T15:46:43.832Z,5.30
2023-04-01T15:52:07.033Z,11.50
2023-04-01T15:57:32.257Z,6.67
2023-04-01T16:02:52.857Z,5.13
2023-04-01T16:08:01.417Z,5.93
2023-04-01T16:13:18.963Z,9.07
2023-04-01T16:18:50.194Z,12.80
2023-04-01T16:24:05.849Z,9.87
2023-04-01T16:29:14.337Z,9.77
2023-04-01T16:34:42.195Z,7.93
2023-04-01T16:39:53.534Z,7.67
2023-04-01T16:45:11.107Z,5.87
2023-04-01T16:50:26.114Z,6.47
2023-04-01T16:55:58.549Z,5.63
2023-04-01T17:01:09.778Z,5.77
2023-04-01T17:06:34.737Z,5.50
2023-04-01T17:11:52.382Z,7.37
2023-04-01T17:17:12.796Z,6.10
2023-04-01T17:22:30.643Z,5.77
2023-04-01T17:27:49.565Z,5.17
2023-04-01T17:33:03.774Z,3.97
2023-04-01T17:38:15.267Z,5.63
2023-04-01T17:43:36.285Z,7.60
2023-04-01T17:48:47.652Z,7.20
2023-04-01T17:54:02.519Z,6.57
2023-04-01T17:59:19.913Z,7.33
2023-04-01T18:04:40.526Z,5.60
2023-04-01T18:09:49.429Z,6.87
2023-04-01T18:14:57.948Z,5.17
2023-04-01T18:20:15.473Z,5.70
2023-04-01T18:25:24.029Z,5.47
2023-04-01T18:30:32.838Z,8.13
2023-04-01T18:35:53.695Z,6.67
2023-04-01T18:41:36.011Z,5.17
2023-04-01T18:47:07.005Z,3.87
2023-04-01T18:52:38.277Z,4.67
2023-04-01T18:57:58.455Z,3.30
2023-04-01T19:03:25.297Z,5.93
2023-04-01T19:08:37.569Z,4.13
2023-04-01T19:14:10.244Z,3.77
2023-04-01T19:19:35.158Z,5.10
2023-04-01T19:25:15.083Z,3.83
2023-04-01T19:30:44.048Z,2.27
2023-04-01T19:36:14.877Z,3.43
2023-04-01T19:41:29.524Z,4.67
2023-04-01T19:46:50.857Z,3.50
2023-04-01T19:52:05.539Z,5.00
2023-04-01T19:57:22.855Z,6.60
2023-04-01T20:02:34.473Z,3.63
2023-04-01T20:07:43.230Z,4.23
2023-04-01T20:13:09.989Z,4.30
2023-04-01T20:18:24.546Z,3.80
2023-04-01T20:23:38.625Z,4.63
2023-04-01T20:28:52.860Z,4.53
2023-04-01T20:34:19.706Z,4.17
2023-04-01T20:39:49.530Z,2.70
2023-04-01T20:44:57.997Z,3.37
2023-04-01T20:50:15.896Z,2.70
2023-04-01T20:55:30.686Z,2.93
2023-04-01T21:01:07.233Z,3.53
2023-04-01T21:06:19.171Z,2.43
2023-04-01T21:11:28.750Z,4.43
2023-04-01T21:16:43.137Z,2.83
2023-04-01T21:22:02.000Z,3.40
2023-04-01T21:27:28.972Z,3.90
2023-04-01T21:33:02.750Z,3.97
2023-04-01T21:38:29.527Z,2.37
2023-04-01T21:43:44.356Z,2.57
2023-04-01T21:48:58.441Z,2.10
2023-04-01T21:54:40.671Z,2.57
2023-04-01T21:59:52.260Z,3.40
2023-04-01T22:05:20.585Z,3.67
2023-04-01T22:10:37.921Z,4.50
2023-04-01T22:15:52.045Z,3.13
2023-04-01T22:21:05.238Z,3.37
2023-04-01T22:26:31.137Z,1.60
2023-04-01T22:31:42.245Z,1.87
2023-04-01T22:36:59.527Z,3.67
2023-04-01T22:42:23.591Z,2.37
2023-04-01T22:47:34.840Z,3.10
2023-04-01T22:52:45.878Z,2.57
2023-04-01T22:58:00.748Z,2.93
2023-04-01T23:03:27.944Z,3.43
2023-04-01T23:08:54.532Z,4.63
2023-04-01T23:14:11.802Z,2.87
2023-04-01T23:19:36.237Z,2.40
2023-04-01T23:24:45.269Z,5.23
2023-04-01T23:29:50.982Z,4.57
2023-04-01T23:35:03.099Z,2.90
2023-04-01T23:40:11.790Z,3.57
2023-04-01T23:45:21.854Z,2.93
2023-04-01T23:50:28.656Z,2.30
2023-04-01T23:55:35.904Z,3.13
